createdAt,value
2022-09-20T00:07:07.217Z,7
2022-09-20T00:17:11.770Z,5
2022-09-20T00:27:11.598Z,6
2022-09-20T00:37:11.201Z,6
2022-09-20T00:47:12.116Z,6
2022-09-20T00:57:13.986Z,6
2022-09-20T01:07:14.155Z,6
2022-09-20T01:17:14.685Z,6
2022-09-20T01:27:15.403Z,6
2022-09-20T01:37:16.041Z,7
2022-09-20T01:47:16.597Z,5
2022-09-20T01:57:17.676Z,6
2022-09-20T02:07:18.423Z,5
2022-09-20T02:17:19.187Z,6
2022-09-20T02:27:21.101Z,6
2022-09-20T02:37:21.464Z,6
2022-09-20T02:47:26.417Z,6
2022-09-20T02:57:24.985Z,4
2022-09-20T03:07:25.817Z,4
2022-09-20T03:17:26.737Z,5
2022-09-20T03:27:27.715Z,5
2022-09-20T03:37:29.588Z,4
2022-09-20T03:47:29.908Z,4
2022-09-20T03:57:30.605Z,5
2022-09-20T04:07:31.132Z,4
2022-09-20T04:17:32.801Z,4
2022-09-20T04:27:33.201Z,5
2022-09-20T04:37:34.033Z,5
2022-09-20T04:47:34.741Z,5
2022-09-20T04:57:35.688Z,6
2022-09-20T05:07:36.580Z,5
2022-09-20T05:17:37.775Z,4
2022-09-20T05:27:38.499Z,4
2022-09-20T05:37:39.484Z,4
2022-09-20T05:47:43.871Z,4
2022-09-20T05:57:41.815Z,5
2022-09-20T06:07:42.517Z,4
2022-09-20T06:17:43.156Z,5
2022-09-20T06:27:43.962Z,4
2022-09-20T06:37:44.863Z,4
2022-09-20T06:47:49.923Z,4
2022-09-20T06:57:51.916Z,4
2022-09-20T07:07:53.187Z,4
2022-09-20T07:17:51.742Z,4
2022-09-20T07:27:52.345Z,3
2022-09-20T07:37:53.062Z,3
2022-09-20T07:47:53.823Z,4
2022-09-20T07:57:54.008Z,6
2022-09-20T08:07:55.134Z,4
2022-09-20T08:17:56.342Z,3
2022-09-20T08:27:56.979Z,5
2022-09-20T08:39:57.035Z,3
2022-09-20T08:48:18.619Z,3
2022-09-20T08:58:31.978Z,4
2022-09-20T09:08:37.493Z,4
2022-09-20T09:18:40.471Z,3
2022-09-20T09:28:39.381Z,3
2022-09-20T09:38:39.429Z,5
2022-09-20T09:48:44.291Z,5
2022-09-20T09:58:42.382Z,4
2022-09-20T10:08:42.489Z,4
2022-09-20T10:18:43.404Z,5
2022-09-20T10:28:43.775Z,5
2022-09-20T10:38:45.374Z,4
2022-09-20T10:49:04.014Z,4
2022-09-20T10:59:05.206Z,3
2022-09-20T11:09:07.946Z,4
2022-09-20T11:19:20.456Z,5
2022-09-20T11:29:19.306Z,4
2022-09-20T11:39:20.454Z,4
2022-09-20T11:49:20.545Z,4
2022-09-20T11:59:21.215Z,4
2022-09-20T12:09:22.840Z,3
2022-09-20T12:19:21.980Z,4
2022-09-20T12:29:23.689Z,3
2022-09-20T12:39:31.295Z,4
2022-09-20T13:01:46.672Z,3
2022-09-20T13:11:45.186Z,4
2022-09-20T13:21:45.605Z,4
2022-09-20T13:31:48.606Z,4
2022-09-20T13:41:47.755Z,4
2022-09-20T13:51:50.319Z,4
2022-09-20T14:01:50.531Z,4
2022-09-20T14:11:55.041Z,3
2022-09-20T14:21:54.029Z,5
2022-09-20T14:32:00.045Z,3
2022-09-20T14:42:05.556Z,3
2022-09-20T14:52:05.334Z,4
2022-09-20T15:02:10.181Z,3
2022-09-20T15:12:13.476Z,4
2022-09-20T15:22:11.858Z,3
2022-09-20T15:32:11.429Z,3
2022-09-20T15:42:12.793Z,3
2022-09-20T15:52:17.070Z,4
2022-09-20T16:04:20.105Z,3
2022-09-20T16:14:21.452Z,6
2022-09-20T16:24:33.411Z,42
2022-09-20T16:34:39.840Z,54
2022-09-20T16:44:45.532Z,33
2022-09-20T16:54:47.891Z,25
2022-09-20T17:04:46.545Z,16
2022-09-20T17:14:47.579Z,11
2022-09-20T22:25:16.173Z,5
2022-09-20T22:35:21.810Z,6
2022-09-20T22:45:20.130Z,5
2022-09-20T22:55:21.085Z,8
2022-09-20T23:05:21.774Z,6
2022-09-20T23:15:29.993Z,7
2022-09-20T23:25:55.027Z,7
2022-09-20T23:36:01.385Z,8
2022-09-20T23:46:00.110Z,6
2022-09-20T23:56:05.204Z,7
